World of Logs combat log analyzer allows gamers to save, share and analyze their raiding experiences conveniently and thoroughly in the Blizzard MMO World of Warcraft. If you're new here, make sure you check out the tour for a 1 minute introduction. If you have any questions, we're happy to answer them on the forums.

DPS HPS
Odyn
Helya
Guarm
Reports for Lei Shen - statistics
# Date Time Damage DPS Guild Realm
1 13 Sep 2013 04:55 918.79M 3107267.2 Conviction EU-Arathor
2 04 May 2014 05:58 1023.42M 2856038.8 Wåntèd US-Garrosh
3 20 Sep 2013 06:07 962.15M 2616724.4 Conviction EU-Arathor
4 03 Jun 2013 06:08 1186.79M 3217253.9 Last Resort EU-Kazzak
5 23 Jul 2013 06:14 1220.55M 3259745.4 Conviction EU-Arathor
6 04 Jun 2013 06:19 1186.55M 3123483.3 Эзериал EU-Ревущий фьорд
7 16 Jul 2013 06:32 1270.33M 3232894.9 Conviction EU-Arathor
8 09 Jul 2013 06:34 1243.09M 3153976.9 Conviction EU-Arathor
9 12 May 2013 06:45 1224.35M 3018165.6 Method EU-Twisting Nether
10 27 May 2013 06:48 1233.52M 3016522.6 Desolate EU-Frostwhisper
11 29 Apr 2013 06:49 1271.80M 3105957.7 Echoes EU-Laughing Skull
12 20 May 2013 06:50 1223.50M 2979773.9 Method EU-Twisting Nether
13 07 May 2013 06:50 1240.81M 3021710.3 Сырник EU-Гордунни
14 30 May 2013 06:51 1267.20M 3081470.5 Shadows and Dust US-Mal'Ganis
15 31 May 2013 06:53 1243.39M 3004566.8 Shake Miracle US-Illidan
16 23 May 2013 06:54 1255.14M 3029034.3 Method EU-Twisting Nether
17 03 Jun 2013 06:55 1176.92M 2830323.2 Moronic Impression EU-Frostwhisper
18 02 Jun 2013 06:59 1226.70M 2924520.9 Andrew US-Fizzcrank
19 03 Jun 2013 07:01 1184.22M 2811092.6 Traumatic US-Deathwing
20 27 May 2013 07:03 1281.49M 3028298.6 Die Lumpenbruderschaft US-Zangarmarsh
21 18 Jun 2013 07:05 1275.65M 3000595.6 Conviction EU-Arathor
22 27 May 2013 07:06 1228.90M 2880767.3 Rise Above US-Azralon
23 13 May 2013 07:06 1202.37M 2815971.2 Prophets EU-Garona
24 13 May 2013 07:07 1202.37M 2815852.5 Prophets EU-Garona
25 08 May 2013 07:08 1220.50M 2847677.6 М И Б EU-Король-лич
26 02 Jun 2013 07:09 1202.83M 2803463.1 Hostile EU-Blackhand
27 03 Jun 2013 07:09 1284.46M 2987705.9 Ascent US-Thrall
28 03 Jun 2013 07:12 1204.39M 2782966.6 Thrust US-Dark Iron
29 28 May 2013 07:12 1235.64M 2854954.5 PathFinders EU-Bronzebeard
30 02 Jun 2013 07:13 1180.27M 2721167.0 Electric Sheep US-Kargath
31 30 May 2013 07:14 1232.52M 2838055.2 Paradigm Shift US-Stormrage
32 27 May 2013 07:14 1204.68M 2773707.0 Despair EU-Kazzak
33 06 May 2013 07:15 1207.32M 2772228.2 The Great Danes EU-Ravencrest
34 06 May 2013 07:17 1219.27M 2788584.1 Pure EU-Turalyon
35 02 Jul 2013 07:17 1343.21M 3069986.6 Conviction EU-Arathor
36 02 Jun 2013 07:18 1223.06M 2789308.7 EndGame EU-Al'Akir
37 02 Jun 2013 07:19 1242.42M 2828825.2 Kittykat US-Nathrezim
38 07 May 2013 07:20 1219.81M 2770220.8 Advance LFR EU-Azshara
39 21 May 2013 07:24 1215.60M 2734145.3 The Great Danes EU-Ravencrest
40 23 May 2013 07:28 1239.37M 2765231.1 Thrust US-Dark Iron
41 09 May 2013 07:28 1252.51M 2791186.0 Something Wicked US-Whisperwind
42 30 Apr 2013 07:29 1223.04M 2721935.9 ExAequo UE EU-Pozzo dell'Eternità
43 30 May 2013 07:29 1280.39M 2847314.8 Vox Radix US-Darkspear
44 20 May 2013 07:30 1303.34M 2894818.7 Pure US-Antonidas
45 02 Jun 2013 07:31 1302.95M 2884180.5 Bovine Intervention EU-Khadgar
46 07 May 2013 07:32 1278.65M 2825871.6 Method EU-Twisting Nether
47 04 Jun 2013 07:34 1333.38M 2936899.8 Афины EU-Свежеватель Душ
48 03 Jun 2013 07:34 1356.52M 2982955.8 Fallen II US-Tichondrius
49 23 May 2013 07:35 1227.74M 2694894.8 South of Heaven US-Stormreaver
50 09 Jun 2013 07:37 1318.84M 2880058.7 Conviction EU-Arathor
51 03 Jun 2013 07:38 1307.99M 2854431.2 Reckless US-Skullcrusher
52 30 May 2013 07:40 1218.86M 2648007.6 Borderline Amazing US-Bleeding Hollow
53 03 Jun 2013 07:41 1244.60M 2695430.0 RR inc. EU-Ravenholdt
54 13 May 2013 07:41 1349.52M 2922405.6 Inhume EU-Blackmoore
55 21 May 2013 07:42 1236.99M 2675722.0 Quantum Leap EU-Pozzo dell'Eternità
56 30 May 2013 07:45 1267.38M 2724125.8 Advent Fury US-Hyjal
57 03 Jun 2013 07:45 1191.16M 2559931.3 The Unnamed US-Tanaris
58 22 Apr 2013 07:46 1330.80M 2850760.4 Unholy Trinity US-Burning Blade
59 27 May 2013 07:48 1262.81M 2695470.9 The Hive EU-Cho’gall
60 19 May 2013 07:48 1257.16M 2683228.0 Vanguard EU-Kazzak
61 04 Jun 2013 07:48 1225.25M 2614733.0 Pendulum EU-Kazzak
62 13 May 2013 07:48 1210.18M 2580657.6 Last Resort EU-Kazzak
63 13 May 2013 07:51 1280.98M 2719446.2 Brogger's Loggers US-Kil'jaeden
64 28 May 2013 07:52 1299.34M 2752479.8 Innominate EU-Burning Legion
65 16 May 2013 07:52 1227.46M 2598781.1 Brogger's Loggers US-Kil'jaeden
66 13 May 2013 07:52 1241.09M 2624998.6 Tempest Rises US-Bleeding Hollow
67 25 Jun 2013 07:53 1293.76M 2734587.2 Conviction EU-Arathor
68 27 May 2013 07:54 1271.70M 2681636.5 Unknown Entity EU-Sylvanas
69 28 May 2013 07:54 1313.19M 2766148.8 Conviction EU-Arathor
70 29 Apr 2013 07:55 1321.11M 2780398.1 Winds of Creation EU-Daggerspine
71 06 May 2013 07:56 1249.89M 2621286.5 Blue Label US-Barthilas
72 14 May 2013 07:57 1264.05M 2649051.5 Si Vis Pacem Parabellum EU-Sargeras
73 28 May 2013 07:57 1374.29M 2879352.2 Huhuholics EU-Tarren Mill
74 03 Jun 2013 07:57 1285.75M 2691188.7 Boogiemen EU-Tarren Mill
75 03 Jun 2013 07:57 1285.75M 2691149.3 Boogiemen EU-Tarren Mill
76 30 May 2013 07:58 1339.65M 2801607.5 Skunkworks US-Stormreaver
77 07 May 2013 07:59 1220.61M 2544919.6 Фитиль EU-Ревущий фьорд
78 21 May 2013 08:00 1292.15M 2691267.7 Unknown Entity EU-Sylvanas
79 20 May 2013 08:00 1277.95M 2659260.6 Angry US-Illidan
80 14 May 2013 08:02 1388.61M 2877254.7 I love the DIPS EU-Tarren Mill
81 31 May 2013 08:03 1285.44M 2660906.5 Accidents Happen US-Mal'Ganis
82 26 May 2013 08:03 1305.46M 2699827.6 Javvo's Logs US-Illidan
83 15 Apr 2013 08:03 1268.20M 2621487.5 Fallen II US-Tichondrius
84 19 May 2013 08:04 1312.32M 2709974.2 Ascent US-Thrall
85 22 Apr 2013 08:04 1283.09M 2648859.9 Eclipse EU-Dalaran
86 29 Apr 2013 08:04 1265.64M 2609754.6 Fallen II US-Tichondrius
87 03 Jun 2013 08:05 1233.22M 2542386.9 Rififi US-Dragonblight
88 21 Apr 2013 08:06 1280.34M 2629961.7 Pure EU-Turalyon
89 13 May 2013 08:08 1244.67M 2549956.9 EndGame EU-Al'Akir
90 07 Apr 2013 08:08 1248.52M 2557247.8 Aurora EU-Stormrage
91 06 May 2013 08:08 1258.70M 2577975.5 Imperium EU-Nagrand
92 06 May 2013 08:08 1220.86M 2497132.8 Angry US-Illidan
93 02 Jun 2013 08:10 1285.07M 2622136.6 Equinox US-Misha
94 29 Apr 2013 08:10 1225.37M 2499987.5 Infusion US-Azjol-Nerub
95 14 May 2013 08:10 1329.32M 2710398.9 Apex EU-Al'Akir
96 08 Apr 2013 08:10 1267.23M 2582635.3 Unholy Trinity US-Burning Blade
97 22 Apr 2013 08:11 1266.29M 2574136.4 Imperium EU-Nagrand
98 30 Apr 2013 08:12 1257.60M 2554715.3 Восточный Фронт EU-Черный Шрам
99 08 Apr 2013 08:12 1280.63M 2601368.8 Schisms US-Mal'Ganis
100 27 May 2013 08:12 1432.20M 2906720.3 Effective EU-Nazjatar

Please do not close the page with the ad you want to report.

I've posted a guide on how to report misbehaving ads on the forum. Please follow the instructions and help make the internet a safer place. Thanks for you time.